Time;durP1;ratioP1;P1;durP2;ratioP2;P2;SDS_P1;SDS_P2;PMS_P1;PMS_P2;Temp;Humidity;BMP_temperature;BMP_pressure;BME280_temperature;BME280_humidity;BME280_pressure;Samples;Min_cycle;Max_cycle;Signal;HPM_P1;HPM_P2
2022/12/17 13:06:54;;;;;;;37.75;16.60;;;-3.90;99.90;;;;;;5063162;28;20447;-79
2022/12/17 13:09:26;;;;;;;42.50;17.88;;;-3.90;99.90;;;;;;5064864;28;20039;-82
2022/12/17 13:12:01;;;;;;;36.38;16.83;;;-3.90;99.90;;;;;;5061613;28;20951;-81
2022/12/17 13:14:35;;;;;;;43.83;19.50;;;-3.90;99.90;;;;;;5061011;28;20036;-85
2022/12/17 13:17:03;;;;;;;36.65;16.98;;;-3.90;99.90;;;;;;5066804;28;20035;-87
2022/12/17 13:19:37;;;;;;;45.85;17.90;;;-3.90;99.90;;;;;;5061600;28;20044;-78
2022/12/17 13:22:15;;;;;;;35.45;17.48;;;-3.90;99.90;;;;;;5057448;28;20460;-79
2022/12/17 13:24:47;;;;;;;45.55;20.83;;;-3.90;99.90;;;;;;5060213;28;20024;-88
2022/12/17 13:27:35;;;;;;;69.20;31.33;;;-3.80;99.90;;;;;;5063929;28;20027;-87
2022/12/17 13:30:16;;;;;;;52.53;23.88;;;-3.90;99.90;;;;;;5065543;28;20071;-88
2022/12/17 13:33:20;;;;;;;55.75;24.40;;;-4.00;99.90;;;;;;5061979;28;20028;-89
2022/12/17 13:35:52;;;;;;;60.35;24.90;;;-3.90;99.90;;;;;;5060406;28;20032;-89
2022/12/17 13:38:31;;;;;;;48.53;22.80;;;-3.90;99.90;;;;;;5058772;28;20051;-89
2022/12/17 13:41:11;;;;;;;58.33;19.88;;;-3.90;99.90;;;;;;5061312;28;20027;-85
2022/12/17 13:44:07;;;;;;;47.42;21.02;;;-4.00;99.90;;;;;;5058704;28;20016;-86
2022/12/17 13:46:45;;;;;;;44.88;21.08;;;-4.00;99.90;;;;;;5052461;28;21134;-78
2022/12/17 13:49:23;;;;;;;50.42;22.27;;;-3.90;99.90;;;;;;5059843;28;21904;-76
2022/12/17 13:52:13;;;;;;;44.67;20.63;;;-3.90;99.90;;;;;;5061094;28;20041;-75
2022/12/17 13:54:39;;;;;;;46.28;20.30;;;-3.80;99.90;;;;;;5060071;28;20032;-77
2022/12/17 13:57:09;;;;;;;47.80;20.90;;;-3.80;99.90;;;;;;5061016;28;20063;-74
2022/12/17 13:59:35;;;;;;;67.68;24.90;;;-3.80;99.90;;;;;;5065722;28;20032;-75
2022/12/17 14:02:01;;;;;;;47.17;21.73;;;-3.80;99.90;;;;;;5061676;28;20524;-79
2022/12/17 14:04:28;;;;;;;46.60;20.48;;;-3.90;99.90;;;;;;5063647;28;20103;-83
2022/12/17 14:07:02;;;;;;;46.40;21.17;;;-3.80;99.90;;;;;;5063168;28;20549;-76
2022/12/17 14:09:41;;;;;;;41.53;19.40;;;-3.90;99.90;;;;;;5066201;28;20097;-77
2022/12/17 14:12:24;;;;;;;38.78;19.27;;;-4.00;99.90;;;;;;5061721;28;20035;-79
2022/12/17 14:15:07;;;;;;;37.58;18.48;;;-4.00;99.90;;;;;;5062209;28;20599;-77
2022/12/17 14:17:45;;;;;;;34.03;17.67;;;-4.00;99.90;;;;;;5076108;28;20051;-81
2022/12/17 14:20:18;;;;;;;54.50;25.75;;;-4.00;99.90;;;;;;5061326;28;20131;-83
2022/12/17 14:22:50;;;;;;;63.33;27.27;;;-4.00;99.90;;;;;;5056020;28;20501;-77
2022/12/17 14:25:38;;;;;;;45.08;20.60;;;-4.10;99.90;;;;;;5060129;28;20057;-77
2022/12/17 14:28:18;;;;;;;41.65;18.73;;;-4.10;99.90;;;;;;5057752;28;20028;-78
2022/12/17 14:30:44;;;;;;;43.90;19.80;;;-4.10;99.90;;;;;;5060802;28;20430;-79
2022/12/17 14:33:29;;;;;;;45.30;20.33;;;-4.10;99.90;;;;;;5059032;28;20024;-79
2022/12/17 14:35:57;;;;;;;46.70;20.15;;;-4.10;99.90;;;;;;5059263;28;20412;-81
2022/12/17 14:38:23;;;;;;;46.08;20.55;;;-4.20;99.90;;;;;;5052525;28;20068;-77
2022/12/17 14:40:49;;;;;;;46.67;19.63;;;-4.20;99.90;;;;;;5063357;28;20114;-76
2022/12/17 14:43:15;;;;;;;47.85;21.95;;;-4.10;99.90;;;;;;5058388;28;20256;-77
2022/12/17 14:48:59;;;;;;;46.97;21.50;;;-4.20;99.90;;;;;;5062114;28;20885;-85
2022/12/17 14:51:40;;;;;;;49.72;22.00;;;-4.20;99.90;;;;;;5060349;28;20031;-83
2022/12/17 14:54:19;;;;;;;47.47;22.77;;;-4.20;99.90;;;;;;5060662;28;20114;-86
2022/12/17 14:56:46;;;;;;;47.33;22.33;;;-4.20;99.90;;;;;;5060554;28;20032;-81
2022/12/17 14:59:24;;;;;;;46.25;21.10;;;;;;;;;;5062556;28;20040;-80
2022/12/17 15:01:52;;;;;;;46.22;20.85;;;-4.30;99.90;;;;;;5063120;28;20158;-79
2022/12/17 15:04:18;;;;;;;47.13;21.05;;;-4.30;99.90;;;;;;5055358;28;20112;-76
2022/12/17 15:06:44;;;;;;;42.50;20.70;;;-4.30;99.90;;;;;;5060340;28;20020;-82
2022/12/17 15:09:12;;;;;;;46.67;21.25;;;-4.30;99.90;;;;;;5061897;28;20028;-79
2022/12/17 15:11:38;;;;;;;40.30;20.10;;;-4.40;99.90;;;;;;5061388;28;20024;-80
2022/12/17 15:14:04;;;;;;;43.15;20.80;;;-4.40;99.90;;;;;;5058771;28;20067;-79
2022/12/17 15:16:29;;;;;;;50.88;21.90;;;-4.40;99.90;;;;;;5059382;28;20031;-79
2022/12/17 15:18:55;;;;;;;44.72;20.50;;;-4.40;99.90;;;;;;5060632;28;20020;-86
2022/12/17 15:21:21;;;;;;;51.53;21.60;;;-4.30;99.90;;;;;;5061436;28;20040;-82
2022/12/17 15:23:47;;;;;;;51.30;21.75;;;-4.30;99.90;;;;;;5056660;28;20024;-79
2022/12/17 15:26:16;;;;;;;50.17;23.70;;;-4.30;99.90;;;;;;5062632;28;20098;-74
2022/12/17 15:28:42;;;;;;;46.60;21.88;;;-4.30;99.90;;;;;;5060691;28;21753;-74
2022/12/17 15:31:13;;;;;;;45.70;20.80;;;-4.30;99.90;;;;;;5058930;28;20030;-81
2022/12/17 15:33:39;;;;;;;45.45;20.90;;;-4.30;99.90;;;;;;5055815;28;20534;-79
2022/12/17 15:36:05;;;;;;;50.50;23.05;;;-4.40;99.90;;;;;;5058290;28;20020;-77
2022/12/17 15:38:30;;;;;;;49.42;20.88;;;-4.40;99.90;;;;;;5059029;28;20414;-76
2022/12/17 15:40:59;;;;;;;44.80;20.58;;;-4.40;99.90;;;;;;5058633;28;20035;-75
2022/12/17 15:43:25;;;;;;;46.60;22.13;;;-4.40;99.90;;;;;;5058447;28;20093;-76
2022/12/17 15:45:51;;;;;;;44.63;21.40;;;-4.40;99.90;;;;;;5042932;28;20047;-75
2022/12/17 15:48:19;;;;;;;49.22;22.23;;;-4.40;99.90;;;;;;5040057;28;20536;-74
2022/12/17 15:50:46;;;;;;;45.70;22.25;;;-4.50;99.90;;;;;;5036778;28;20025;-77
2022/12/17 15:53:12;;;;;;;46.75;21.60;;;-4.50;99.90;;;;;;5038645;28;20751;-77
2022/12/17 15:55:38;;;;;;;49.08;21.52;;;-4.40;99.90;;;;;;5038010;28;20054;-77
2022/12/17 15:58:05;;;;;;;46.75;21.55;;;-4.40;99.90;;;;;;5048669;28;20059;-75
2022/12/17 16:00:31;;;;;;;48.22;23.02;;;-4.40;99.90;;;;;;5043410;28;20112;-77
2022/12/17 16:02:56;;;;;;;55.33;24.20;;;-4.40;99.90;;;;;;5047950;28;20552;-76
2022/12/17 16:05:22;;;;;;;53.67;23.50;;;-4.40;99.90;;;;;;5043462;28;20055;-76
2022/12/17 16:07:48;;;;;;;49.72;22.48;;;-4.40;99.90;;;;;;5041406;28;20666;-80
2022/12/17 16:10:14;;;;;;;58.53;25.35;;;-4.50;99.90;;;;;;5043227;28;20086;-86
2022/12/17 16:12:40;;;;;;;59.28;25.95;;;-4.40;99.90;;;;;;5041838;28;20406;-83
2022/12/17 16:15:07;;;;;;;53.53;24.55;;;-4.40;99.90;;;;;;5048736;28;20375;-75
2022/12/17 16:17:33;;;;;;;50.00;23.23;;;-4.40;99.90;;;;;;5040722;28;20145;-78
2022/12/17 16:20:02;;;;;;;55.08;24.98;;;-4.40;99.90;;;;;;5041132;28;20030;-75
2022/12/17 16:22:28;;;;;;;53.58;25.20;;;-4.40;99.90;;;;;;5036618;28;20726;-76
2022/12/17 16:24:53;;;;;;;53.92;25.73;;;-4.30;99.90;;;;;;5038766;28;20043;-77
2022/12/17 16:27:19;;;;;;;58.33;25.88;;;-4.30;99.90;;;;;;5051404;28;20459;-86
2022/12/17 16:29:48;;;;;;;57.42;26.20;;;-4.40;99.90;;;;;;5044418;28;20028;-83
2022/12/17 16:32:15;;;;;;;55.55;23.05;;;-4.40;99.90;;;;;;5039664;28;20032;-76
2022/12/17 16:34:41;;;;;;;86.53;22.23;;;-4.40;99.90;;;;;;5039393;28;20028;-77
2022/12/17 16:37:06;;;;;;;47.55;21.75;;;-4.40;99.90;;;;;;5042671;28;20120;-79
2022/12/17 16:39:32;;;;;;;47.55;22.08;;;-4.40;99.90;;;;;;5043555;28;20029;-80
2022/12/17 16:41:58;;;;;;;50.30;22.58;;;-4.50;99.90;;;;;;5038914;28;20263;-82
2022/12/17 16:44:23;;;;;;;47.03;22.13;;;-4.50;99.90;;;;;;5043085;28;20068;-81
2022/12/17 16:46:50;;;;;;;55.08;25.25;;;-4.50;99.90;;;;;;5041795;28;20048;-83
2022/12/17 16:49:19;;;;;;;69.30;24.85;;;-4.50;99.90;;;;;;5039400;28;20040;-77
2022/12/17 16:51:47;;;;;;;62.95;25.70;;;-4.40;99.90;;;;;;5041605;28;20036;-75
2022/12/17 16:54:16;;;;;;;57.97;24.70;;;-4.40;99.90;;;;;;5039180;28;20734;-82
2022/12/17 16:56:43;;;;;;;49.28;22.20;;;-4.50;99.90;;;;;;5049010;28;20036;-78
2022/12/17 16:59:10;;;;;;;50.05;24.33;;;-4.50;99.90;;;;;;5043392;28;20375;-83
2022/12/17 17:01:38;;;;;;;77.10;24.50;;;-4.50;99.90;;;;;;5043499;28;20076;-85
2022/12/17 17:04:06;;;;;;;55.38;22.55;;;-4.60;99.90;;;;;;5036167;28;20016;-82
2022/12/17 17:06:36;;;;;;;49.88;23.92;;;-4.60;99.90;;;;;;5045594;28;20130;-81
2022/12/17 17:09:05;;;;;;;70.95;28.55;;;-4.70;99.90;;;;;;5040038;28;20504;-83
2022/12/17 17:11:31;;;;;;;58.10;26.52;;;-4.70;99.90;;;;;;5036953;28;21303;-84
2022/12/17 17:13:57;;;;;;;69.07;27.50;;;-4.70;99.90;;;;;;5037607;28;20090;-87
2022/12/17 17:16:23;;;;;;;78.90;28.83;;;-4.60;99.90;;;;;;5037692;28;20033;-76
2022/12/17 17:18:50;;;;;;;75.15;27.45;;;-4.60;99.90;;;;;;5059894;28;20063;-79
2022/12/17 17:21:19;;;;;;;62.95;27.05;;;-4.70;99.90;;;;;;5039936;28;20039;-76
2022/12/17 17:23:46;;;;;;;76.63;26.45;;;-4.60;99.90;;;;;;5039626;28;21765;-82
2022/12/17 17:26:12;;;;;;;58.97;26.40;;;-4.60;99.90;;;;;;5044507;28;20515;-82
2022/12/17 17:28:38;;;;;;;57.58;26.58;;;-4.70;99.90;;;;;;5040872;28;20103;-77
2022/12/17 17:31:07;;;;;;;66.88;26.63;;;-4.70;99.90;;;;;;5043417;28;20025;-75
2022/12/17 17:33:37;;;;;;;68.40;31.25;;;-4.70;99.90;;;;;;5043089;28;20029;-79
2022/12/17 17:36:09;;;;;;;69.57;29.50;;;-4.70;99.90;;;;;;5039599;28;20082;-87
2022/12/17 17:38:36;;;;;;;64.93;28.85;;;-4.60;99.90;;;;;;5043212;28;20524;-85
2022/12/17 17:41:03;;;;;;;64.55;26.63;;;-4.70;99.90;;;;;;5041799;28;20048;-82
2022/12/17 17:43:30;;;;;;;53.95;23.10;;;-4.80;99.90;;;;;;5040724;28;20029;-83
2022/12/17 17:46:08;;;;;;;52.45;24.85;;;-4.80;99.90;;;;;;5030262;28;20044;-84
2022/12/17 17:48:34;;;;;;;49.17;23.45;;;-4.90;99.90;;;;;;5055908;28;20180;-85
2022/12/17 17:51:03;;;;;;;60.67;27.02;;;-4.90;99.90;;;;;;5063614;28;20160;-86
2022/12/17 17:53:28;;;;;;;79.15;26.75;;;-4.90;99.90;;;;;;5058069;28;20472;-77
2022/12/17 17:56:00;;;;;;;53.70;25.30;;;-4.90;99.90;;;;;;5059806;28;20020;-77
2022/12/17 17:58:26;;;;;;;53.90;24.02;;;-4.90;99.90;;;;;;5060290;28;20208;-84
2022/12/17 18:00:51;;;;;;;47.70;22.20;;;-4.90;99.90;;;;;;5060095;28;20089;-83
2022/12/17 18:03:17;;;;;;;65.25;23.30;;;-5.00;99.90;;;;;;5058629;28;20032;-82
2022/12/17 18:05:42;;;;;;;51.03;24.02;;;-5.00;99.90;;;;;;5054576;28;20114;-81
2022/12/17 18:08:08;;;;;;;59.67;24.63;;;-4.90;99.90;;;;;;5061024;28;22226;-81
2022/12/17 18:10:34;;;;;;;62.97;25.52;;;-4.90;99.90;;;;;;5061925;28;20546;-82
2022/12/17 18:15:44;;;;;;;49.00;23.27;;;-5.00;99.90;;;;;;5057037;28;20042;-79
2022/12/17 18:18:09;;;;;;;49.05;22.85;;;-4.90;99.90;;;;;;5060832;28;20024;-79
2022/12/17 18:20:35;;;;;;;52.95;23.45;;;-4.90;99.90;;;;;;5059635;28;20039;-81
2022/12/17 18:23:01;;;;;;;59.20;24.25;;;-4.90;99.90;;;;;;5060481;28;20663;-80
2022/12/17 18:25:26;;;;;;;59.72;25.58;;;-4.90;99.90;;;;;;5062053;28;20156;-81
2022/12/17 18:27:52;;;;;;;51.25;25.38;;;-4.90;99.90;;;;;;5059199;28;20036;-80
2022/12/17 18:30:18;;;;;;;55.13;24.77;;;-4.90;99.90;;;;;;5062700;28;20085;-81
2022/12/17 18:32:48;;;;;;;73.55;27.10;;;-4.90;99.90;;;;;;5057918;28;20418;-80
2022/12/17 18:35:14;;;;;;;59.05;25.10;;;-4.80;99.90;;;;;;5054964;28;20038;-81
2022/12/17 18:37:40;;;;;;;51.47;24.10;;;-4.80;99.90;;;;;;5059814;28;20035;-81
2022/12/17 18:40:07;;;;;;;77.57;27.17;;;-4.80;99.90;;;;;;5058972;28;20032;-83
2022/12/17 18:45:19;;;;;;;54.10;25.98;;;-4.80;99.90;;;;;;5011755;28;20145;-84
2022/12/17 18:47:44;;;;;;;71.00;26.67;;;-4.90;99.90;;;;;;5062012;28;20027;-78
2022/12/17 18:50:11;;;;;;;57.10;25.13;;;-4.90;99.90;;;;;;5059131;28;20035;-83
2022/12/17 18:52:37;;;;;;;107.35;27.23;;;-5.00;99.90;;;;;;5055215;28;20032;-80
2022/12/17 18:55:03;;;;;;;57.97;24.70;;;-5.00;99.90;;;;;;5058547;28;20113;-81
2022/12/17 18:57:29;;;;;;;67.50;24.70;;;-5.10;99.90;;;;;;5060044;28;20032;-84
2022/12/17 18:59:55;;;;;;;53.10;23.77;;;-5.10;99.90;;;;;;5062220;28;20038;-81
2022/12/17 19:02:21;;;;;;;71.82;25.13;;;-5.10;99.90;;;;;;5057133;28;20043;-77
2022/12/17 19:04:47;;;;;;;102.00;24.75;;;-5.00;99.90;;;;;;5058209;28;20505;-77
2022/12/17 19:07:13;;;;;;;56.05;23.23;;;-5.00;99.90;;;;;;5054444;28;20024;-84
2022/12/17 19:09:39;;;;;;;47.15;21.98;;;-5.00;99.90;;;;;;5057629;28;20024;-77
2022/12/17 19:12:06;;;;;;;85.40;23.45;;;-5.00;99.90;;;;;;5056245;28;20023;-77
2022/12/17 19:14:32;;;;;;;41.67;21.17;;;-5.00;99.90;;;;;;5058111;28;20083;-74
2022/12/17 19:16:58;;;;;;;55.25;22.48;;;-5.10;99.90;;;;;;5055052;28;20130;-84
2022/12/17 19:19:24;;;;;;;50.10;24.38;;;-5.10;99.90;;;;;;5057455;28;20040;-83
2022/12/17 19:21:52;;;;;;;82.63;23.40;;;-5.10;99.90;;;;;;5057048;28;20489;-77
2022/12/17 19:24:19;;;;;;;62.60;24.23;;;-5.20;99.90;;;;;;5055626;28;20560;-84
2022/12/17 19:26:45;;;;;;;53.53;24.55;;;-5.20;99.90;;;;;;5060548;28;20036;-80
2022/12/17 19:29:12;;;;;;;51.53;23.90;;;-5.20;99.90;;;;;;5058263;28;20571;-75
2022/12/17 19:31:38;;;;;;;49.05;23.25;;;-5.20;99.90;;;;;;5066735;28;20364;-86
2022/12/17 19:34:06;;;;;;;55.22;24.92;;;-5.20;99.90;;;;;;5054485;28;20135;-80
2022/12/17 19:36:34;;;;;;;57.50;26.42;;;-5.20;99.90;;;;;;5058941;28;20046;-82
2022/12/17 19:39:03;;;;;;;62.83;25.50;;;-5.20;99.90;;;;;;5060022;28;20144;-76
2022/12/17 19:41:31;;;;;;;56.92;23.73;;;-5.20;99.90;;;;;;5059360;28;20024;-79
2022/12/17 19:44:02;;;;;;;159.40;30.50;;;-5.30;99.90;;;;;;5056089;28;20032;-86
2022/12/17 19:46:30;;;;;;;73.00;30.00;;;-5.30;99.90;;;;;;5062962;28;20470;-78
2022/12/17 19:48:56;;;;;;;60.78;24.70;;;-5.30;99.90;;;;;;5060583;28;21817;-80
2022/12/17 19:51:24;;;;;;;49.75;22.95;;;-5.30;99.90;;;;;;5059931;28;20123;-81
2022/12/17 19:53:50;;;;;;;55.13;23.55;;;-5.30;99.90;;;;;;5055010;28;20028;-78
2022/12/17 19:56:25;;;;;;;57.03;22.70;;;-5.30;99.90;;;;;;5059801;28;20035;-83
2022/12/17 19:58:54;;;;;;;72.20;22.27;;;-5.30;99.90;;;;;;5056840;28;20028;-81
2022/12/17 20:01:25;;;;;;;49.10;22.55;;;-5.30;99.90;;;;;;5058234;28;20178;-81
2022/12/17 20:03:51;;;;;;;44.03;20.75;;;-5.40;99.90;;;;;;5054886;28;20036;-84
2022/12/17 20:06:20;;;;;;;46.72;22.10;;;-5.40;99.90;;;;;;5061705;28;20530;-81
2022/12/17 20:08:46;;;;;;;50.60;23.70;;;-5.30;99.90;;;;;;5057117;28;20093;-73
2022/12/17 20:11:32;;;;;;;50.35;22.17;;;-5.30;99.90;;;;;;5057180;28;20656;-76
2022/12/17 20:14:05;;;;;;;50.22;22.45;;;-5.30;99.90;;;;;;5056882;28;20826;-83
2022/12/17 20:16:34;;;;;;;50.95;23.20;;;-5.40;99.90;;;;;;5055517;28;20024;-76
2022/12/17 20:19:01;;;;;;;64.37;22.90;;;-5.40;99.90;;;;;;5057815;28;21281;-77
2022/12/17 20:21:27;;;;;;;49.08;23.02;;;-5.40;99.90;;;;;;5055779;28;20036;-74
2022/12/17 20:23:53;;;;;;;52.38;23.23;;;-5.50;99.90;;;;;;5056037;28;20662;-83
2022/12/17 20:26:19;;;;;;;49.73;22.20;;;-5.50;99.90;;;;;;5055929;28;20114;-78
2022/12/17 20:28:45;;;;;;;53.70;22.43;;;-5.40;99.90;;;;;;5057804;28;20048;-82
2022/12/17 20:31:11;;;;;;;45.97;22.40;;;-5.50;99.90;;;;;;5055087;28;20032;-83
2022/12/17 20:33:38;;;;;;;47.13;21.38;;;-5.60;99.90;;;;;;5057139;28;20105;-81
2022/12/17 20:36:05;;;;;;;49.15;22.00;;;-5.50;99.90;;;;;;5055524;28;20047;-79
2022/12/17 20:38:31;;;;;;;65.17;21.83;;;-5.50;99.90;;;;;;5059671;28;20086;-80
2022/12/17 20:40:57;;;;;;;51.67;22.08;;;-5.50;99.90;;;;;;5056591;28;20424;-77
2022/12/17 20:43:23;;;;;;;61.15;24.80;;;-5.60;99.90;;;;;;5053840;28;20028;-90
2022/12/17 20:45:50;;;;;;;52.47;24.27;;;-5.60;99.90;;;;;;5056076;28;20626;-82
2022/12/17 20:48:17;;;;;;;51.33;22.23;;;-5.60;99.90;;;;;;5056374;28;20028;-73
2022/12/17 20:50:43;;;;;;;66.20;24.00;;;-5.60;99.90;;;;;;5054899;28;20486;-79
2022/12/17 20:53:09;;;;;;;68.33;25.10;;;-5.60;99.90;;;;;;5054152;28;20051;-75
2022/12/17 20:55:35;;;;;;;63.20;26.38;;;-5.60;99.90;;;;;;5055082;28;20036;-86
2022/12/17 20:58:01;;;;;;;71.57;25.77;;;-5.60;99.90;;;;;;5059055;28;20028;-76
2022/12/17 21:00:26;;;;;;;65.45;24.52;;;-5.60;99.90;;;;;;5058108;28;20162;-75
2022/12/17 21:02:52;;;;;;;52.78;23.40;;;-5.60;99.90;;;;;;5053730;28;20439;-78
2022/12/17 21:05:18;;;;;;;70.60;24.38;;;-5.60;99.90;;;;;;5056675;28;20024;-75
2022/12/17 21:07:44;;;;;;;44.50;21.57;;;-5.70;99.90;;;;;;5058923;28;20034;-84
2022/12/17 21:10:10;;;;;;;56.43;23.27;;;-5.70;99.90;;;;;;5058435;28;20146;-80
2022/12/17 21:15:21;;;;;;;95.53;23.10;;;-5.70;99.90;;;;;;5058971;28;20048;-84
2022/12/17 21:17:47;;;;;;;51.42;23.33;;;-5.60;99.90;;;;;;5057249;28;20028;-83
2022/12/17 21:20:13;;;;;;;70.78;21.38;;;-5.70;99.90;;;;;;5055756;28;20405;-81
2022/12/17 21:22:40;;;;;;;43.15;21.35;;;-5.70;99.90;;;;;;5057657;28;20363;-83
2022/12/17 21:25:07;;;;;;;49.25;22.83;;;-5.70;99.90;;;;;;5062733;28;20024;-78
2022/12/17 21:27:33;;;;;;;59.10;23.48;;;-5.70;99.90;;;;;;5062777;28;20409;-84
2022/12/17 21:29:59;;;;;;;89.40;26.15;;;-5.70;99.90;;;;;;5060125;28;20028;-85
2022/12/17 21:32:24;;;;;;;51.33;23.88;;;-5.70;99.90;;;;;;5062210;28;20743;-88
2022/12/17 21:34:50;;;;;;;48.65;22.27;;;-5.70;99.90;;;;;;5059890;28;20504;-76
2022/12/17 21:37:16;;;;;;;48.75;21.70;;;-5.70;99.90;;;;;;5059870;28;20335;-77
2022/12/17 21:39:41;;;;;;;44.95;20.85;;;-5.70;99.90;;;;;;5064812;28;20032;-78
2022/12/17 21:44:51;;;;;;;74.35;21.42;;;-5.80;99.90;;;;;;5060680;28;20123;-76
2022/12/17 21:47:17;;;;;;;56.03;20.73;;;-5.90;99.90;;;;;;5060286;28;20190;-74
2022/12/17 21:49:43;;;;;;;45.33;21.60;;;-5.90;99.90;;;;;;5061622;28;20145;-78
2022/12/17 21:52:08;;;;;;;68.53;23.00;;;-5.90;99.90;;;;;;5061774;28;20044;-80
2022/12/17 21:54:34;;;;;;;46.83;21.45;;;-6.00;99.90;;;;;;5061828;28;20027;-85
2022/12/17 21:56:59;;;;;;;52.58;21.33;;;-6.00;99.90;;;;;;5059550;28;20036;-77
2022/12/17 21:59:25;;;;;;;50.90;20.55;;;-5.90;99.90;;;;;;5063604;28;20394;-85
2022/12/17 22:01:52;;;;;;;45.28;20.58;;;-6.00;99.90;;;;;;5064534;28;20044;-84
2022/12/17 22:04:18;;;;;;;49.83;21.05;;;-6.00;99.90;;;;;;5057794;28;20121;-78
2022/12/17 22:06:43;;;;;;;50.13;20.65;;;-6.00;99.90;;;;;;5060065;28;20118;-78
2022/12/17 22:09:09;;;;;;;48.63;20.13;;;-6.00;99.90;;;;;;5062797;28;20047;-79
2022/12/17 22:11:35;;;;;;;52.40;19.27;;;-6.10;99.90;;;;;;5068038;28;20513;-78
2022/12/17 22:14:01;;;;;;;43.65;19.35;;;-6.20;99.90;;;;;;5072758;28;20084;-79
2022/12/17 22:16:31;;;;;;;43.88;20.25;;;-6.20;99.90;;;;;;5076578;28;20040;-76
2022/12/17 22:18:57;;;;;;;47.58;20.35;;;-6.20;99.90;;;;;;5073579;28;20496;-77
2022/12/17 22:21:23;;;;;;;44.17;20.23;;;-6.20;99.90;;;;;;5066206;28;20040;-75
2022/12/17 22:23:49;;;;;;;41.38;19.30;;;-6.10;99.90;;;;;;5073196;28;20044;-81
2022/12/17 22:26:16;;;;;;;44.20;20.25;;;-6.10;99.90;;;;;;5074845;28;20075;-86
2022/12/17 22:28:43;;;;;;;47.42;21.33;;;-6.20;99.90;;;;;;4366704;28;10000887;-87
2022/12/17 22:33:57;;;;;;;42.72;19.90;;;-6.20;99.90;;;;;;5073883;28;20036;-85
2022/12/17 22:36:23;;;;;;;40.43;18.63;;;-6.30;99.90;;;;;;5080373;28;20106;-87
2022/12/17 22:38:48;;;;;;;40.83;19.73;;;-6.30;99.90;;;;;;5077834;28;20028;-86
2022/12/17 22:43:28;;;;;;;39.22;18.42;;;-6.30;99.90;;;;;;5082955;28;20028;-87
2022/12/17 22:44:03;;;;;;;52.43;20.70;;;-6.30;99.90;;;;;;5080270;28;20039;-87
2022/12/17 22:46:30;;;;;;;51.10;20.73;;;-6.30;99.90;;;;;;5076306;28;20036;-86
2022/12/17 22:48:57;;;;;;;44.73;20.97;;;-6.40;99.90;;;;;;5066756;28;20496;-87
2022/12/17 22:51:23;;;;;;;44.97;21.13;;;-6.50;99.90;;;;;;5074682;28;20057;-86
2022/12/17 22:53:49;;;;;;;49.53;20.70;;;-6.40;99.90;;;;;;5080326;28;20031;-86
2022/12/17 22:56:15;;;;;;;50.63;22.30;;;-6.40;99.90;;;;;;5077385;28;20021;-86
2022/12/17 22:58:40;;;;;;;49.83;21.73;;;-6.30;99.90;;;;;;5070164;28;20470;-87
2022/12/17 23:01:06;;;;;;;57.23;24.27;;;-6.30;99.90;;;;;;5064339;28;20486;-86
2022/12/17 23:03:32;;;;;;;50.87;22.87;;;-6.30;99.90;;;;;;5065616;28;20032;-87
2022/12/17 23:06:12;;;;;;;51.97;23.07;;;-6.20;99.90;;;;;;5068375;28;20036;-86
2022/12/17 23:08:38;;;;;;;56.17;24.17;;;-6.30;99.90;;;;;;5066745;28;20110;-86
2022/12/17 23:11:06;;;;;;;53.13;22.57;;;-6.20;99.90;;;;;;5067215;28;20023;-86
2022/12/17 23:13:32;;;;;;;56.67;24.50;;;-6.20;99.90;;;;;;5064545;28;20036;-86
2022/12/17 23:15:58;;;;;;;52.73;22.70;;;-6.20;99.90;;;;;;5062488;28;20024;-86
2022/12/17 23:18:23;;;;;;;64.77;22.83;;;-6.20;99.90;;;;;;5065461;28;20028;-86
2022/12/17 23:20:49;;;;;;;51.63;22.67;;;-6.20;99.90;;;;;;5067152;28;20580;-86
2022/12/17 23:23:14;;;;;;;53.30;22.80;;;-6.30;99.90;;;;;;5065392;28;20529;-85
2022/12/17 23:25:40;;;;;;;48.27;21.77;;;-6.30;99.90;;;;;;5068334;28;20035;-87
2022/12/17 23:28:06;;;;;;;54.47;22.10;;;-6.30;99.90;;;;;;5065786;28;20028;-86
2022/12/17 23:30:31;;;;;;;49.03;21.43;;;-6.30;99.90;;;;;;5068185;28;20032;-86
2022/12/17 23:32:57;;;;;;;53.10;21.77;;;-6.40;99.90;;;;;;5064517;28;20152;-86
2022/12/17 23:35:22;;;;;;;45.43;21.00;;;-6.40;99.90;;;;;;5064010;28;20020;-86
2022/12/17 23:37:48;;;;;;;51.53;20.80;;;-6.40;99.90;;;;;;5064352;28;20036;-86
2022/12/17 23:40:14;;;;;;;71.27;20.80;;;-6.40;99.90;;;;;;5066027;28;20820;-86
2022/12/17 23:42:40;;;;;;;47.37;20.67;;;-6.50;99.90;;;;;;5064724;28;20038;-87
2022/12/17 23:45:07;;;;;;;57.03;23.57;;;-6.50;99.90;;;;;;5057223;28;20060;-85
2022/12/17 23:47:33;;;;;;;54.17;22.43;;;-6.50;99.90;;;;;;5047807;28;20037;-87
2022/12/17 23:49:59;;;;;;;50.73;22.47;;;-6.60;99.90;;;;;;5047070;28;20021;-86
2022/12/17 23:52:24;;;;;;;60.93;21.23;;;-6.60;99.90;;;;;;5049193;28;20715;-86
2022/12/17 23:54:50;;;;;;;52.00;21.17;;;-6.60;99.90;;;;;;5045768;28;20071;-85
2022/12/17 23:57:15;;;;;;;58.30;22.37;;;-6.60;99.90;;;;;;5041982;28;20035;-86
2022/12/17 23:59:41;;;;;;;50.80;21.53;;;-6.60;99.90;;;;;;5047895;28;20035;-86
